createdAt,value
2019-03-31T00:02:49.043Z,19.79
2019-03-31T00:05:55.719Z,21.35
2019-03-31T00:09:13.594Z,22.31
2019-03-31T00:12:17.867Z,20.61
2019-03-31T00:17:20.330Z,20.77
2019-03-31T00:22:17.195Z,20.60
2019-03-31T00:25:24.900Z,21.55
2019-03-31T00:28:58.623Z,21.06
2019-03-31T00:32:05.154Z,23.29
2019-03-31T00:36:08.694Z,25.05
2019-03-31T00:39:17.335Z,25.27
2019-03-31T00:42:25.952Z,27.27
2019-03-31T00:45:34.931Z,24.31
2019-03-31T00:48:47.506Z,24.42
2019-03-31T00:51:52.367Z,25.79
2019-03-31T00:54:59.362Z,24.56
2019-03-31T00:58:10.385Z,23.41
2019-03-31T01:01:43.896Z,22.98
2019-03-31T01:04:47.154Z,24.05
2019-03-31T01:07:54.039Z,22.01
2019-03-31T01:12:56.462Z,24.11
2019-03-31T01:17:53.910Z,23.20
2019-03-31T01:20:54.506Z,23.83
2019-03-31T01:24:01.086Z,23.95
2019-03-31T01:27:10.030Z,21.75
2019-03-31T01:30:17.426Z,22.43
2019-03-31T01:33:24.274Z,25.19
2019-03-31T01:40:20.956Z,23.80
2019-03-31T01:43:21.214Z,25.53
2019-03-31T01:46:27.535Z,24.85
2019-03-31T01:49:38.367Z,24.12
2019-03-31T01:58:34.736Z,27.27
2019-03-31T02:01:34.723Z,26.56
2019-03-31T02:04:41.134Z,28.14
2019-03-31T02:11:37.051Z,27.92
2019-03-31T02:14:37.192Z,24.96
2019-03-31T02:17:47.618Z,24.34
2019-03-31T02:21:51.379Z,29.87
2019-03-31T02:24:52.755Z,25.46
2019-03-31T02:28:57.370Z,24.89
2019-03-31T02:37:49.820Z,26.89
2019-03-31T02:40:49.684Z,26.64
2019-03-31T02:49:52.775Z,28.26
2019-03-31T02:52:56.534Z,28.60
2019-03-31T02:56:01.480Z,28.59
2019-03-31T02:59:22.486Z,28.75
2019-03-31T03:06:20.511Z,27.84
2019-03-31T03:13:13.299Z,24.63
2019-03-31T03:16:15.854Z,23.68
2019-03-31T03:19:21.220Z,28.79
2019-03-31T03:22:32.035Z,29.35
2019-03-31T03:25:54.581Z,33.52
2019-03-31T03:30:59.521Z,30.95
2019-03-31T03:35:59.586Z,29.00
2019-03-31T03:38:59.976Z,26.12
2019-03-31T03:45:55.576Z,24.17
2019-03-31T03:51:49.856Z,28.22
2019-03-31T03:54:50.026Z,23.26
2019-03-31T04:05:47.483Z,26.14
2019-03-31T04:14:44.125Z,28.71
2019-03-31T04:23:34.513Z,28.56
2019-03-31T04:26:34.272Z,27.11
2019-03-31T04:33:52.835Z,27.82
2019-03-31T04:36:53.178Z,31.80
2019-03-31T04:39:59.483Z,24.06
2019-03-31T04:43:06.237Z,28.44
2019-03-31T04:58:07.093Z,28.92
2019-03-31T05:08:58.371Z,30.73
2019-03-31T05:12:02.111Z,24.75
2019-03-31T05:18:56.359Z,25.41
2019-03-31T05:21:56.257Z,26.81
2019-03-31T05:25:03.315Z,28.88
2019-03-31T05:28:11.869Z,28.02
2019-03-31T05:37:12.030Z,28.16
2019-03-31T05:40:11.886Z,28.84
2019-03-31T05:43:18.303Z,29.24
2019-03-31T05:46:34.279Z,26.89
2019-03-31T05:49:38.667Z,28.14
2019-03-31T05:52:45.614Z,26.75
2019-03-31T05:55:52.686Z,29.35
2019-03-31T05:58:59.658Z,26.84
2019-03-31T06:03:08.602Z,28.75
2019-03-31T06:07:08.188Z,31.74
2019-03-31T06:24:08.055Z,34.04
2019-03-31T06:27:07.694Z,31.24
2019-03-31T06:30:14.166Z,31.39
2019-03-31T06:37:10.410Z,31.70
2019-03-31T06:52:03.382Z,28.08
2019-03-31T06:55:05.567Z,28.66
2019-03-31T06:58:11.145Z,29.35
2019-03-31T07:01:17.942Z,29.00
2019-03-31T07:08:22.211Z,26.94
2019-03-31T07:12:19.789Z,25.05
2019-03-31T07:17:16.826Z,24.33
2019-03-31T07:20:24.503Z,24.60
2019-03-31T07:23:29.035Z,24.60
2019-03-31T07:26:43.223Z,24.25
2019-03-31T07:29:59.154Z,22.69
2019-03-31T07:33:03.850Z,24.70
2019-03-31T07:40:07.105Z,23.08
2019-03-31T07:43:11.862Z,24.16
2019-03-31T07:46:35.520Z,23.60
2019-03-31T07:49:38.983Z,24.04
2019-03-31T07:53:44.143Z,22.74
2019-03-31T07:58:41.054Z,21.70
2019-03-31T08:01:49.230Z,22.31
2019-03-31T08:05:00.860Z,22.69
2019-03-31T08:08:05.866Z,23.24
2019-03-31T08:11:19.999Z,21.49
2019-03-31T08:14:29.042Z,24.12
2019-03-31T08:17:49.190Z,19.64
2019-03-31T08:20:53.266Z,21.36
2019-03-31T08:24:11.626Z,22.16
2019-03-31T08:27:45.019Z,20.17
2019-03-31T08:30:47.890Z,22.07
2019-03-31T08:33:54.984Z,20.79
2019-03-31T08:37:16.546Z,19.99
2019-03-31T08:40:31.546Z,19.61
2019-03-31T08:43:36.350Z,20.86
2019-03-31T08:46:50.439Z,19.56
2019-03-31T08:49:55.677Z,20.80
2019-03-31T08:53:06.903Z,21.87
2019-03-31T08:56:26.962Z,18.95
2019-03-31T08:59:31.018Z,20.24
2019-03-31T09:03:06.902Z,20.41
2019-03-31T09:06:17.047Z,20.62
2019-03-31T09:09:22.238Z,19.00
2019-03-31T09:12:29.682Z,19.54
2019-03-31T09:19:26.538Z,19.40
2019-03-31T09:23:24.146Z,18.25
2019-03-31T09:26:25.638Z,18.17
2019-03-31T09:29:34.660Z,16.44
2019-03-31T09:34:35.903Z,18.49
2019-03-31T09:39:32.834Z,15.88
2019-03-31T09:42:40.755Z,16.95
2019-03-31T09:45:49.398Z,17.28
2019-03-31T09:49:09.479Z,15.71
2019-03-31T09:52:20.619Z,15.12
2019-03-31T09:55:27.671Z,16.35
2019-03-31T09:58:45.362Z,17.15
2019-03-31T10:01:57.329Z,17.87
2019-03-31T10:05:05.783Z,17.15
2019-03-31T10:08:12.246Z,17.44
2019-03-31T10:11:19.424Z,16.14
2019-03-31T10:14:30.218Z,16.41
2019-03-31T10:17:39.771Z,16.01
2019-03-31T10:20:45.756Z,16.01
2019-03-31T10:23:55.145Z,16.79
2019-03-31T10:27:01.746Z,16.44
2019-03-31T10:30:10.815Z,16.39
2019-03-31T10:33:24.594Z,15.95
2019-03-31T10:36:46.480Z,15.99
2019-03-31T10:41:46.366Z,16.41
2019-03-31T10:44:58.311Z,15.09
2019-03-31T10:48:19.204Z,14.92
2019-03-31T10:51:28.469Z,15.00
2019-03-31T10:54:34.409Z,13.92
2019-03-31T10:57:52.998Z,13.61
2019-03-31T11:01:04.866Z,14.18
2019-03-31T11:04:17.267Z,14.25
2019-03-31T11:07:22.447Z,12.89
2019-03-31T11:10:39.022Z,12.51
2019-03-31T11:13:51.173Z,11.79
2019-03-31T11:17:05.503Z,12.86
2019-03-31T11:20:13.854Z,10.86
2019-03-31T11:23:26.559Z,10.15
2019-03-31T11:26:32.310Z,10.45
2019-03-31T11:29:46.874Z,9.59
2019-03-31T11:32:54.323Z,10.32
2019-03-31T11:36:08.059Z,8.03
2019-03-31T11:39:18.521Z,8.57
2019-03-31T11:42:24.246Z,8.71
2019-03-31T11:45:31.747Z,7.87
2019-03-31T11:48:41.143Z,7.77
2019-03-31T11:51:54.742Z,8.05
2019-03-31T11:55:07.292Z,8.47
2019-03-31T11:58:12.545Z,8.74
2019-03-31T12:01:27.171Z,10.27
2019-03-31T12:04:39.643Z,10.41
2019-03-31T12:07:49.114Z,10.83
2019-03-31T12:10:56.719Z,8.43
2019-03-31T12:14:03.375Z,9.46
2019-03-31T12:17:17.682Z,8.39
2019-03-31T12:20:22.990Z,8.08
2019-03-31T12:23:35.751Z,9.85
2019-03-31T12:26:48.055Z,8.35
2019-03-31T12:29:55.050Z,8.19
2019-03-31T12:33:08.720Z,7.54
2019-03-31T12:36:15.873Z,5.90
2019-03-31T12:39:22.557Z,6.98
2019-03-31T12:42:37.054Z,7.92
2019-03-31T12:45:45.281Z,6.22
2019-03-31T12:48:51.515Z,5.60
2019-03-31T12:52:05.871Z,5.44
2019-03-31T12:55:16.634Z,5.81
2019-03-31T12:58:22.210Z,5.36
2019-03-31T13:01:31.627Z,4.64
2019-03-31T13:04:38.482Z,5.21
2019-03-31T13:07:58.364Z,5.79
2019-03-31T13:11:09.714Z,5.26
2019-03-31T13:14:14.962Z,6.24
2019-03-31T13:17:23.980Z,5.00
2019-03-31T13:20:34.666Z,5.32
2019-03-31T13:23:40.608Z,5.44
2019-03-31T13:26:55.106Z,5.81
2019-03-31T13:30:05.981Z,5.57
2019-03-31T13:33:18.583Z,6.22
2019-03-31T13:36:24.402Z,5.50
2019-03-31T13:39:37.230Z,5.15
2019-03-31T13:42:49.979Z,5.26
2019-03-31T13:46:02.366Z,5.75
2019-03-31T13:49:11.454Z,4.75
2019-03-31T13:52:19.116Z,5.09
2019-03-31T13:55:25.787Z,4.94
2019-03-31T13:58:42.950Z,5.76
2019-03-31T14:01:51.214Z,4.95
2019-03-31T14:04:57.270Z,4.53
2019-03-31T14:08:26.872Z,5.29
2019-03-31T14:11:42.244Z,5.26
2019-03-31T14:14:57.892Z,5.58
2019-03-31T14:18:04.272Z,6.05
2019-03-31T14:21:22.817Z,6.06
2019-03-31T14:24:35.507Z,5.84
2019-03-31T14:27:47.690Z,4.85
2019-03-31T14:30:53.082Z,5.66
2019-03-31T14:34:03.694Z,5.14
2019-03-31T14:37:14.458Z,5.95
2019-03-31T14:40:20.247Z,6.01
2019-03-31T14:43:33.529Z,6.11
2019-03-31T14:46:39.027Z,5.85
2019-03-31T14:49:46.243Z,5.24
2019-03-31T14:53:01.027Z,6.24
2019-03-31T14:56:06.191Z,5.65
2019-03-31T14:59:13.642Z,6.00
2019-03-31T15:02:24.364Z,8.41
2019-03-31T15:05:30.594Z,9.76
2019-03-31T15:08:55.916Z,9.85
2019-03-31T15:11:59.447Z,10.95
2019-03-31T15:15:10.595Z,9.66
2019-03-31T15:18:23.594Z,10.11
2019-03-31T15:21:28.675Z,10.69
2019-03-31T15:24:43.251Z,9.04
2019-03-31T15:27:55.547Z,10.70
2019-03-31T15:31:00.706Z,10.97
2019-03-31T15:34:12.058Z,10.51
2019-03-31T15:37:21.555Z,10.96
2019-03-31T15:40:27.650Z,12.40
2019-03-31T15:43:35.066Z,13.21
2019-03-31T15:46:42.486Z,12.51
2019-03-31T15:49:49.687Z,12.25
2019-03-31T15:53:04.123Z,13.69
2019-03-31T15:56:09.283Z,12.46
2019-03-31T15:59:23.810Z,14.48
2019-03-31T16:02:31.226Z,14.00
2019-03-31T16:05:37.687Z,13.51
2019-03-31T16:08:48.438Z,16.18
2019-03-31T16:11:56.121Z,15.99
2019-03-31T16:15:14.166Z,15.01
2019-03-31T16:18:25.898Z,14.51
2019-03-31T16:21:30.907Z,16.32
2019-03-31T16:25:07.286Z,16.58
2019-03-31T16:28:17.806Z,15.86
2019-03-31T16:31:22.758Z,17.99
2019-03-31T16:34:33.394Z,18.67
2019-03-31T16:37:45.298Z,16.95
2019-03-31T16:40:50.822Z,17.19
2019-03-31T16:44:05.113Z,16.65
2019-03-31T16:47:10.327Z,17.69
2019-03-31T16:50:23.451Z,17.91
2019-03-31T16:53:28.999Z,16.45
2019-03-31T16:56:36.227Z,17.59
2019-03-31T16:59:48.325Z,18.19
2019-03-31T17:03:01.226Z,17.19
2019-03-31T17:06:18.372Z,19.89
2019-03-31T17:09:28.774Z,19.80
2019-03-31T17:12:34.371Z,19.36
2019-03-31T17:15:48.706Z,19.40
2019-03-31T17:18:57.282Z,24.40
2019-03-31T17:22:07.146Z,27.89
2019-03-31T17:25:14.614Z,30.30
2019-03-31T17:28:28.199Z,30.82
2019-03-31T17:31:35.342Z,34.06
2019-03-31T17:34:41.983Z,34.65
2019-03-31T17:37:53.162Z,35.34
2019-03-31T17:40:59.030Z,29.23
2019-03-31T17:44:06.350Z,35.02
2019-03-31T17:47:17.570Z,35.71
2019-03-31T17:50:31.010Z,34.94
2019-03-31T17:53:39.542Z,32.92
2019-03-31T17:56:45.606Z,37.24
2019-03-31T17:59:59.882Z,40.25
2019-03-31T18:03:05.015Z,35.52
2019-03-31T18:06:12.174Z,40.35
2019-03-31T18:09:26.370Z,37.95
2019-03-31T18:12:33.418Z,40.42
2019-03-31T18:15:41.846Z,40.97
2019-03-31T18:18:54.214Z,27.80
2019-03-31T18:22:18.501Z,34.37
2019-03-31T18:25:22.343Z,40.85
2019-03-31T18:28:37.467Z,34.95
2019-03-31T18:31:56.871Z,42.51
2019-03-31T18:35:07.098Z,42.06
2019-03-31T18:38:18.362Z,33.96
2019-03-31T18:41:29.698Z,43.92
2019-03-31T18:44:35.194Z,42.80
2019-03-31T18:47:48.274Z,40.03
2019-03-31T18:50:59.650Z,33.15
2019-03-31T18:54:25.613Z,35.78
2019-03-31T18:57:45.052Z,34.01
2019-03-31T19:01:11.886Z,32.35
2019-03-31T19:04:52.327Z,25.85
2019-03-31T19:08:09.457Z,30.70
2019-03-31T19:11:26.932Z,33.55
2019-03-31T19:14:54.990Z,19.85
2019-03-31T19:18:19.758Z,35.74
2019-03-31T19:22:03.160Z,31.72
2019-03-31T19:25:21.711Z,33.35
2019-03-31T19:29:01.859Z,23.20
2019-03-31T19:32:43.908Z,33.60
2019-03-31T19:36:16.688Z,35.97
2019-03-31T19:39:44.095Z,34.49
2019-03-31T19:43:21.618Z,31.95
2019-03-31T19:46:40.447Z,23.16
2019-03-31T19:50:18.742Z,35.06
2019-03-31T19:53:31.603Z,31.77
2019-03-31T19:56:53.446Z,33.38
2019-03-31T20:00:20.418Z,33.72
2019-03-31T20:03:40.640Z,33.78
2019-03-31T20:06:57.652Z,35.25
2019-03-31T20:10:27.242Z,34.09
2019-03-31T20:13:47.666Z,31.62
2019-03-31T20:17:19.926Z,38.20
2019-03-31T20:20:34.828Z,34.41
2019-03-31T20:24:10.994Z,30.91
2019-03-31T20:27:34.578Z,33.10
2019-03-31T20:30:58.090Z,34.67
2019-03-31T20:34:17.966Z,32.10
2019-03-31T20:37:52.116Z,31.46
2019-03-31T20:41:15.921Z,32.95
2019-03-31T20:44:35.109Z,31.57
2019-03-31T20:47:46.806Z,32.71
2019-03-31T20:56:43.111Z,33.46
2019-03-31T20:59:45.379Z,30.83
2019-03-31T21:02:53.073Z,30.49
2019-03-31T21:05:59.198Z,31.01
2019-03-31T21:09:12.098Z,29.99
2019-03-31T21:12:17.314Z,30.07
2019-03-31T21:16:22.762Z,28.26
2019-03-31T21:19:28.235Z,29.56
2019-03-31T21:22:33.691Z,29.70
2019-03-31T21:25:42.803Z,28.35
2019-03-31T21:28:51.179Z,31.55
2019-03-31T21:32:08.702Z,28.47
2019-03-31T21:35:13.251Z,30.16
2019-03-31T21:38:28.222Z,28.64
2019-03-31T21:41:35.350Z,28.70
2019-03-31T21:44:51.519Z,31.40
2019-03-31T21:48:07.109Z,30.61
2019-03-31T21:55:01.102Z,30.69
2019-03-31T21:58:58.695Z,28.61
2019-03-31T22:02:05.878Z,28.29
2019-03-31T22:05:10.975Z,29.69
2019-03-31T22:10:12.498Z,29.27
2019-03-31T22:15:09.584Z,30.76
2019-03-31T22:21:36.686Z,32.49
2019-03-31T22:24:49.375Z,29.79
2019-03-31T22:28:00.511Z,33.59
2019-03-31T22:31:07.758Z,31.55
2019-03-31T22:34:14.083Z,33.85
2019-03-31T22:37:31.082Z,33.02
2019-03-31T22:40:36.026Z,32.06
2019-03-31T22:43:45.246Z,33.90
2019-03-31T22:46:56.455Z,31.17
2019-03-31T22:50:07.802Z,31.05
2019-03-31T22:53:18.974Z,32.26
2019-03-31T22:56:30.066Z,34.46
2019-03-31T22:59:37.427Z,33.74
2019-03-31T23:06:37.771Z,34.05
2019-03-31T23:09:37.718Z,33.85
2019-03-31T23:12:50.226Z,33.06
2019-03-31T23:15:55.568Z,33.46
2019-03-31T23:19:02.623Z,31.23
2019-03-31T23:22:09.562Z,34.95
2019-03-31T23:25:22.623Z,34.95
2019-03-31T23:28:45.558Z,33.45
2019-03-31T23:31:59.101Z,34.59
2019-03-31T23:35:05.009Z,35.26
2019-03-31T23:38:21.300Z,33.31
2019-03-31T23:41:29.833Z,34.24
2019-03-31T23:44:37.404Z,31.99
2019-03-31T23:47:43.771Z,31.47
2019-03-31T23:50:50.711Z,33.86
2019-03-31T23:54:03.907Z,32.70
2019-03-31T23:57:09.298Z,32.97
